Rimouski, Canada
Current Conditions -  °F | °C
As of 11:00 AM on Monday 24 Nov 2014 (Local Time) from CYYY Reporting Station
Light Rain Light Rain  
Wind Chill: 32°   Ceiling: 5500
Heat Index: 43°   Visibility: 15mi
Dew Point: 37°   Wind: 29mph
Humidity: 81%   Direction: 160°SSE
Pressure: 29.71"   Gusts: 44mph
Location:  48.45°N, 68.52°W
Report Text: CYYY 241600Z 16025G38KT 15SM -RA SCT040 OVC055 06/03 A2971 RMK SC3SC5 PRESFR SLP063
Loading
Personal Weather Stations






























Interactive Weather Map New forecast layout! Learn more

10-Day Weather Forecast

Advertisements
Track Severe Weather on mobile